Time;durP1;ratioP1;P1;durP2;ratioP2;P2;SDS_P1;SDS_P2;PMS_P1;PMS_P2;Temp;Humidity;BMP_temperature;BMP_pressure;BME280_temperature;BME280_humidity;BME280_pressure;Samples;Min_cycle;Max_cycle;Signal;HPM_P1;HPM_P2
2023/05/19 00:01:42;;;;;;;;;;;;;;;11.51;35.14;101672.78;4959537;27;98046;-64
2023/05/19 00:04:11;;;;;;;;;;;;;;;11.47;35.57;101665.38;4960465;27;98331;-64
2023/05/19 00:06:37;;;;;;;;;;;;;;;11.43;36.05;101670.44;4946916;28;98203;-68
2023/05/19 00:09:10;;;;;;;;;;;;;;;11.41;35.58;101672.59;4946074;27;99150;-65
2023/05/19 00:11:37;;;;;;;;;;;;;;;11.37;35.47;101665.22;4961315;27;98011;-64
2023/05/19 00:14:04;;;;;;;;;;;;;;;11.32;35.89;101668.66;4944588;27;98182;-68
2023/05/19 00:16:30;;;;;;;;;;;;;;;11.26;35.64;101665.03;4940563;27;98339;-64
2023/05/19 00:18:58;;;;;;;;;;;;;;;11.23;35.92;101667.41;4943956;27;98214;-68
2023/05/19 00:21:25;;;;;;;;;;;;;;;11.18;35.69;101661.91;4944776;27;98115;-68
2023/05/19 00:23:51;;;;;;;;;;;;;;;11.13;35.49;101670.75;4965530;27;99861;-68
2023/05/19 00:26:18;;;;;;;;;;;;;;;11.10;36.07;101665.81;4967172;27;98326;-69
2023/05/19 00:28:44;;;;;;;;;;;;;;;11.06;35.54;101668.19;4952453;27;97891;-64
2023/05/19 00:31:10;;;;;;;;;;;;;;;11.00;35.43;101665.63;4953803;27;97963;-64
2023/05/19 00:33:36;;;;;;;;;;;;;;;10.97;36.12;101669.66;4963675;27;98541;-65
2023/05/19 00:36:03;;;;;;;;;;;;;;;10.93;35.99;101670.38;4950595;27;98214;-64
2023/05/19 00:38:33;;;;;;;;;;;;;;;10.89;35.83;101670.03;4949433;27;98153;-67
2023/05/19 00:40:59;;;;;;;;;;;;;;;10.86;36.22;101675.91;4950345;27;98100;-64
2023/05/19 00:43:26;;;;;;;;;;;;;;;10.82;36.02;101675.56;4949840;27;98506;-63
2023/05/19 00:45:52;;;;;;;;;;;;;;;10.79;35.90;101675.22;4940626;27;98314;-63
2023/05/19 00:48:18;;;;;;;;;;;;;;;10.76;36.07;101676.50;4949803;27;98235;-67
2023/05/19 00:50:45;;;;;;;;;;;;;;;10.73;36.19;101666.22;4947344;27;98257;-64
2023/05/19 00:53:12;;;;;;;;;;;;;;;10.67;36.02;101667.16;4951045;27;99231;-64
2023/05/19 00:55:39;;;;;;;;;;;;;;;10.63;36.01;101666.00;4952116;27;98116;-67
2023/05/19 00:58:06;;;;;;;;;;;;;;;10.59;35.99;101664.84;4950489;27;98160;-64
2023/05/19 01:00:33;;;;;;;;;;;;;;;10.56;35.82;101665.31;4965541;27;98155;-67
2023/05/19 01:02:59;;;;;;;;;;;;;;;10.55;35.73;101669.88;4946997;27;99356;-69
2023/05/19 01:05:25;;;;;;;;;;;;;;;10.52;35.80;101664.13;4948996;27;100136;-68
2023/05/19 01:07:54;;;;;;;;;;;;;;;10.50;36.03;101660.88;4944704;27;98130;-64
2023/05/19 01:10:20;;;;;;;;;;;;;;;10.49;35.96;101664.59;4962930;27;98047;-68
2023/05/19 01:12:46;;;;;;;;;;;;;;;10.46;35.54;101662.41;4947024;27;98210;-64
2023/05/19 01:15:12;;;;;;;;;;;;;;;10.40;35.79;101650.69;4948609;27;119272;-64
2023/05/19 01:17:56;;;;;;;;;;;;;;;10.38;36.46;101654.69;4948385;27;98330;-64
2023/05/19 01:20:29;;;;;;;;;;;;;;;10.33;36.53;101660.78;4942889;27;98119;-64
2023/05/19 01:23:22;;;;;;;;;;;;;;;10.28;35.84;101658.78;4978202;27;98249;-68
2023/05/19 01:26:38;;;;;;;;;;;;;;;10.22;36.54;101656.22;4965105;27;99107;-67
2023/05/19 01:29:28;;;;;;;;;;;;;;;10.16;36.17;101654.44;4919752;28;98139;-67
2023/05/19 01:31:55;;;;;;;;;;;;;;;10.13;36.29;101652.22;4961297;27;97998;-64
2023/05/19 01:34:21;;;;;;;;;;;;;;;10.11;36.02;101657.03;4955628;27;98041;-63
2023/05/19 01:36:48;;;;;;;;;;;;;;;10.07;36.57;101668.28;4943254;28;98017;-64
2023/05/19 01:39:15;;;;;;;;;;;;;;;10.06;36.36;101669.34;4948758;27;98548;-64
2023/05/19 01:41:41;;;;;;;;;;;;;;;10.03;36.25;101661.72;4942383;27;98445;-67
2023/05/19 01:44:08;;;;;;;;;;;;;;;10.02;36.20;101670.00;4964469;28;99998;-64
2023/05/19 01:46:34;;;;;;;;;;;;;;;10.00;35.62;101672.13;4942374;27;99741;-65
2023/05/19 01:49:00;;;;;;;;;;;;;;;9.98;36.24;101668.84;4945622;27;97942;-63
2023/05/19 01:51:26;;;;;;;;;;;;;;;9.95;35.91;101672.84;4941848;27;97909;-67
2023/05/19 01:53:53;;;;;;;;;;;;;;;9.94;36.20;101671.22;4961417;27;100384;-68
2023/05/19 01:56:23;;;;;;;;;;;;;;;9.92;36.16;101667.91;4942109;27;98091;-63
2023/05/19 01:58:55;;;;;;;;;;;;;;;9.90;36.33;101667.31;4947476;27;98089;-64
2023/05/19 02:01:42;;;;;;;;;;;;;;;9.90;36.38;101667.31;4949914;27;98864;-64
2023/05/19 02:04:17;;;;;;;;;;;;;;;9.86;36.11;101666.16;4928860;27;100087;-63
2023/05/19 02:07:00;;;;;;;;;;;;;;;9.82;36.09;101656.88;4958572;27;98163;-68
2023/05/19 02:09:40;;;;;;;;;;;;;;;9.77;36.04;101656.78;4965314;27;99228;-67
2023/05/19 02:12:33;;;;;;;;;;;;;;;9.71;36.45;101661.25;4947935;27;98218;-63
2023/05/19 02:15:03;;;;;;;;;;;;;;;9.65;36.31;101656.75;4881930;27;1926855;-63
2023/05/19 02:17:34;;;;;;;;;;;;;;;9.61;36.44;101654.78;4961764;27;99514;-67
2023/05/19 02:20:03;;;;;;;;;;;;;;;9.58;35.81;101661.44;4960045;27;98296;-63
2023/05/19 02:22:29;;;;;;;;;;;;;;;9.53;36.01;101659.44;4977991;27;97998;-65
2023/05/19 02:24:56;;;;;;;;;;;;;;;9.50;36.38;101659.91;4945105;27;99348;-63
2023/05/19 02:27:22;;;;;;;;;;;;;;;9.48;36.28;101655.81;4945933;27;98222;-67
2023/05/19 02:29:49;;;;;;;;;;;;;;;9.45;36.54;101651.69;4945240;28;98219;-64
2023/05/19 02:32:16;;;;;;;;;;;;;;;9.42;36.73;101660.22;4948656;27;98356;-63
2023/05/19 02:34:44;;;;;;;;;;;;;;;9.41;36.29;101655.09;4944277;27;99590;-67
2023/05/19 02:37:13;;;;;;;;;;;;;;;9.40;36.39;101656.16;4946406;28;97917;-63
2023/05/19 02:39:40;;;;;;;;;;;;;;;9.39;36.56;101660.69;4979693;27;98208;-68
2023/05/19 02:42:07;;;;;;;;;;;;;;;9.36;36.63;101660.34;4945510;28;98251;-68
2023/05/19 02:44:33;;;;;;;;;;;;;;;9.33;36.06;101661.63;4941162;27;100305;-68
2023/05/19 02:47:00;;;;;;;;;;;;;;;9.30;36.06;101667.47;4960336;27;99949;-64
2023/05/19 02:49:29;;;;;;;;;;;;;;;9.27;36.41;101657.97;4963281;27;100089;-64
2023/05/19 02:51:56;;;;;;;;;;;;;;;9.27;36.63;101657.16;4930297;28;98035;-68
2023/05/19 02:54:22;;;;;;;;;;;;;;;9.25;36.66;101656.56;4944593;27;98187;-63
2023/05/19 02:56:49;;;;;;;;;;;;;;;9.22;35.93;101657.03;4946049;27;98930;-64
2023/05/19 02:59:16;;;;;;;;;;;;;;;9.19;35.87;101652.91;4942619;28;98288;-64
2023/05/19 03:01:42;;;;;;;;;;;;;;;9.16;36.32;101660.66;4965596;27;97972;-64
2023/05/19 03:04:09;;;;;;;;;;;;;;;9.13;36.50;101661.09;4961247;28;98183;-67
2023/05/19 03:06:36;;;;;;;;;;;;;;;9.10;36.04;101657.81;4952117;27;98233;-67
2023/05/19 03:09:03;;;;;;;;;;;;;;;9.06;36.31;101653.94;4925797;27;98506;-63
2023/05/19 03:11:29;;;;;;;;;;;;;;;9.06;36.28;101653.13;4928902;27;98596;-63
2023/05/19 03:13:56;;;;;;;;;;;;;;;9.04;36.33;101658.72;4927583;28;98091;-64
2023/05/19 03:16:22;;;;;;;;;;;;;;;9.05;36.05;101656.84;4929437;28;98259;-64
2023/05/19 03:18:49;;;;;;;;;;;;;;;9.04;36.59;101647.97;4930687;28;97978;-64
2023/05/19 03:21:16;;;;;;;;;;;;;;;9.10;36.33;101659.69;4951019;28;98120;-68
2023/05/19 03:23:42;;;;;;;;;;;;;;;9.13;35.92;101661.91;4960253;28;98515;-68
2023/05/19 03:26:09;;;;;;;;;;;;;;;9.17;36.18;101656.91;4932380;28;98029;-63
2023/05/19 03:28:36;;;;;;;;;;;;;;;9.18;36.37;101655.84;4950757;28;98088;-63
2023/05/19 03:31:03;;;;;;;;;;;;;;;9.21;36.12;101655.41;4932177;28;99447;-64
2023/05/19 03:33:29;;;;;;;;;;;;;;;9.24;36.36;101655.75;4929297;28;98720;-64
2023/05/19 03:35:58;;;;;;;;;;;;;;;9.30;36.20;101654.00;4929949;28;98115;-64
2023/05/19 03:38:24;;;;;;;;;;;;;;;9.36;35.75;101649.59;4919681;28;99656;-64
2023/05/19 03:40:50;;;;;;;;;;;;;;;9.40;35.82;101651.59;4930246;28;98512;-64
2023/05/19 03:43:17;;;;;;;;;;;;;;;9.44;36.02;101654.63;4923708;28;99728;-68
2023/05/19 03:45:43;;;;;;;;;;;;;;;9.46;36.38;101650.66;4923764;28;98070;-64
2023/05/19 03:48:09;;;;;;;;;;;;;;;9.51;36.35;101649.94;4933983;28;98311;-68
2023/05/19 03:50:36;;;;;;;;;;;;;;;9.55;36.24;101646.59;4927005;28;98363;-68
2023/05/19 03:53:03;;;;;;;;;;;;;;;9.60;36.54;101648.56;4945459;28;98141;-68
2023/05/19 03:55:29;;;;;;;;;;;;;;;9.67;35.97;101651.13;4926469;28;98062;-68
2023/05/19 03:57:55;;;;;;;;;;;;;;;9.72;36.08;101648.59;4929634;28;98156;-68
2023/05/19 04:00:22;;;;;;;;;;;;;;;9.77;36.02;101649.53;4930882;28;98087;-69
2023/05/19 04:02:48;;;;;;;;;;;;;;;9.82;35.94;101663.13;4928082;28;99724;-68
2023/05/19 04:05:15;;;;;;;;;;;;;;;9.87;35.74;101659.72;4925844;28;97831;-64
2023/05/19 04:07:41;;;;;;;;;;;;;;;9.92;36.29;101664.41;4944614;28;97986;-68
2023/05/19 04:10:08;;;;;;;;;;;;;;;9.94;36.31;101659.59;4924330;28;98400;-64
2023/05/19 04:12:34;;;;;;;;;;;;;;;9.96;36.42;101662.88;4942661;28;99861;-64
2023/05/19 04:15:00;;;;;;;;;;;;;;;9.97;35.99;101654.56;4940724;27;98242;-64
2023/05/19 04:17:27;;;;;;;;;;;;;;;10.00;36.31;101664.06;4943280;27;99392;-64
2023/05/19 04:19:53;;;;;;;;;;;;;;;10.00;36.30;101656.78;4940825;27;98091;-64
2023/05/19 04:22:20;;;;;;;;;;;;;;;10.01;36.09;101669.19;4943047;27;100023;-70
2023/05/19 04:24:47;;;;;;;;;;;;;;;10.03;36.11;101674.38;4946845;28;99261;-64
2023/05/19 04:27:14;;;;;;;;;;;;;;;10.01;36.15;101671.88;4944940;28;97953;-68
2023/05/19 04:29:41;;;;;;;;;;;;;;;10.01;36.46;101671.88;4928028;28;99436;-64
2023/05/19 04:32:07;;;;;;;;;;;;;;;10.03;36.02;101668.97;4946736;28;98380;-64
2023/05/19 04:34:34;;;;;;;;;;;;;;;10.06;35.69;101666.63;4962311;27;99813;-68
2023/05/19 04:37:01;;;;;;;;;;;;;;;10.11;36.62;101667.81;4957296;28;98471;-69
2023/05/19 04:39:27;;;;;;;;;;;;;;;10.14;36.06;101670.00;4961017;28;98025;-64
2023/05/19 04:41:53;;;;;;;;;;;;;;;10.15;36.54;101660.91;4945320;27;100503;-64
2023/05/19 04:44:19;;;;;;;;;;;;;;;10.19;35.80;101662.06;4942233;27;117681;-68
2023/05/19 04:46:45;;;;;;;;;;;;;;;10.24;35.92;101667.56;4944293;27;99568;-68
2023/05/19 04:49:12;;;;;;;;;;;;;;;10.27;36.32;101667.13;4946171;28;98012;-64
2023/05/19 04:51:44;;;;;;;;;;;;;;;10.32;36.28;101669.91;4948297;27;99545;-65
2023/05/19 04:54:10;;;;;;;;;;;;;;;10.38;36.08;101677.06;4944831;27;98638;-64
2023/05/19 04:56:37;;;;;;;;;;;;;;;10.42;36.63;101667.44;4950835;27;99489;-64
2023/05/19 04:59:03;;;;;;;;;;;;;;;10.49;36.35;101672.69;4945947;27;98373;-64
2023/05/19 05:01:31;;;;;;;;;;;;;;;10.55;36.39;101669.88;4943266;27;97989;-68
2023/05/19 05:03:58;;;;;;;;;;;;;;;10.62;36.10;101669.75;4961035;28;97823;-64
2023/05/19 05:06:25;;;;;;;;;;;;;;;10.66;36.57;101670.91;4964846;27;98129;-64
2023/05/19 05:08:51;;;;;;;;;;;;;;;10.72;35.88;101666.44;4944269;27;99929;-64
2023/05/19 05:11:17;;;;;;;;;;;;;;;10.77;35.69;101664.66;4927682;28;98239;-64
2023/05/19 05:13:44;;;;;;;;;;;;;;;10.82;36.13;101664.75;4939174;27;98755;-69
2023/05/19 05:16:11;;;;;;;;;;;;;;;10.90;35.90;101665.44;4946694;27;98199;-69
2023/05/19 05:18:38;;;;;;;;;;;;;;;10.92;36.09;101666.81;4946209;27;98242;-69
2023/05/19 05:21:05;;;;;;;;;;;;;;;11.00;35.74;101649.44;4960910;27;98347;-64
2023/05/19 05:23:31;;;;;;;;;;;;;;;11.12;36.49;101652.09;4941026;27;98037;-70
2023/05/19 05:25:57;;;;;;;;;;;;;;;11.24;36.08;101650.16;4927150;28;106080;-69
2023/05/19 05:28:24;;;;;;;;;;;;;;;11.35;36.23;101648.44;4940616;27;98452;-64
2023/05/19 05:30:50;;;;;;;;;;;;;;;11.45;36.21;101652.16;4941648;27;98174;-64
2023/05/19 05:33:18;;;;;;;;;;;;;;;11.54;35.93;101652.56;4943109;28;98363;-64
2023/05/19 05:35:45;;;;;;;;;;;;;;;11.63;36.28;101648.41;4945646;27;98423;-69
2023/05/19 05:38:11;;;;;;;;;;;;;;;11.72;36.10;101646.09;4945553;27;98521;-69
2023/05/19 05:40:37;;;;;;;;;;;;;;;11.80;35.91;101642.97;4941454;27;98151;-69
2023/05/19 05:43:04;;;;;;;;;;;;;;;11.87;36.23;101637.41;4958461;27;97898;-69
2023/05/19 05:45:30;;;;;;;;;;;;;;;11.95;36.00;101645.13;4941275;27;98229;-64
2023/05/19 05:47:56;;;;;;;;;;;;;;;12.02;36.25;101643.91;4930834;27;98219;-64
2023/05/19 05:50:23;;;;;;;;;;;;;;;12.08;36.13;101646.66;4945655;27;98264;-68
2023/05/19 05:52:49;;;;;;;;;;;;;;;12.15;35.97;101652.72;4940076;27;100611;-69
2023/05/19 05:55:16;;;;;;;;;;;;;;;12.24;36.19;101651.22;4944350;27;98064;-64
2023/05/19 05:57:42;;;;;;;;;;;;;;;12.34;35.94;101656.75;4947089;27;98301;-69
2023/05/19 06:00:14;;;;;;;;;;;;;;;12.44;35.99;101656.88;4957560;28;98247;-69
2023/05/19 06:02:42;;;;;;;;;;;;;;;12.56;35.78;101662.16;4939710;28;98465;-69
2023/05/19 06:05:11;;;;;;;;;;;;;;;12.66;35.87;101667.72;4957969;27;98285;-68
2023/05/19 06:07:37;;;;;;;;;;;;;;;12.79;35.84;101671.91;4942185;27;98393;-65
2023/05/19 06:10:04;;;;;;;;;;;;;;;12.91;35.77;101671.78;4942871;27;99356;-69
2023/05/19 06:12:30;;;;;;;;;;;;;;;13.02;35.88;101660.81;4944077;27;98118;-64
2023/05/19 06:14:56;;;;;;;;;;;;;;;13.18;35.72;101663.66;4942364;27;99139;-69
2023/05/19 06:17:22;;;;;;;;;;;;;;;13.37;35.67;101672.28;4938950;27;98306;-69
2023/05/19 06:19:48;;;;;;;;;;;;;;;13.56;35.22;101672.69;4955828;27;98465;-64
2023/05/19 06:22:14;;;;;;;;;;;;;;;13.75;35.33;101666.66;4939512;27;98261;-64
2023/05/19 06:24:41;;;;;;;;;;;;;;;13.96;35.41;101664.91;4959385;27;98690;-69
2023/05/19 06:27:07;;;;;;;;;;;;;;;14.25;35.09;101673.47;4928737;27;98302;-69
2023/05/19 06:29:33;;;;;;;;;;;;;;;14.57;35.13;101669.03;4943878;27;108194;-64
2023/05/19 06:31:59;;;;;;;;;;;;;;;14.99;34.89;101671.63;4943036;27;98293;-69
2023/05/19 06:34:26;;;;;;;;;;;;;;;15.44;34.53;101659.19;4944295;27;98290;-64
2023/05/19 06:36:52;;;;;;;;;;;;;;;15.68;34.56;101660.34;4921125;27;99147;-65
2023/05/19 06:39:18;;;;;;;;;;;;;;;15.90;34.41;101665.47;4960447;27;98141;-64
2023/05/19 06:41:44;;;;;;;;;;;;;;;16.15;34.48;101659.19;4934449;28;100953;-64
2023/05/19 06:44:11;;;;;;;;;;;;;;;16.29;34.55;101653.16;4941342;27;98125;-69
2023/05/19 06:46:37;;;;;;;;;;;;;;;16.58;34.35;101654.09;4944016;27;98172;-69
2023/05/19 06:49:03;;;;;;;;;;;;;;;16.62;34.26;101654.38;4937986;27;99636;-69
2023/05/19 06:51:30;;;;;;;;;;;;;;;17.00;34.10;101649.31;4937919;28;98315;-65
2023/05/19 06:53:56;;;;;;;;;;;;;;;17.26;34.21;101653.50;4945360;28;98020;-65
2023/05/19 06:56:25;;;;;;;;;;;;;;;17.42;34.10;101649.56;4937420;27;98257;-64
2023/05/19 06:58:51;;;;;;;;;;;;;;;17.58;34.22;101657.63;4957862;27;99472;-69
2023/05/19 07:01:17;;;;;;;;;;;;;;;17.59;34.36;101661.97;4944747;27;98125;-64
2023/05/19 07:03:46;;;;;;;;;;;;;;;17.54;34.50;101649.19;4942860;27;99204;-70
2023/05/19 07:06:12;;;;;;;;;;;;;;;17.54;34.43;101654.66;4946297;28;98694;-70
2023/05/19 07:08:38;;;;;;;;;;;;;;;17.59;34.46;101645.59;4959693;27;98441;-68
2023/05/19 07:11:05;;;;;;;;;;;;;;;17.58;34.55;101649.44;4938338;27;98044;-70
2023/05/19 07:13:31;;;;;;;;;;;;;;;17.59;34.67;101648.31;4937418;27;99624;-69
2023/05/19 07:15:57;;;;;;;;;;;;;;;17.69;34.68;101655.63;4943981;27;98187;-69
2023/05/19 07:18:24;;;;;;;;;;;;;;;17.84;34.39;101648.16;4935531;27;98719;-69
2023/05/19 07:20:52;;;;;;;;;;;;;;;18.12;34.49;101653.84;4942387;28;98734;-69
2023/05/19 07:23:18;;;;;;;;;;;;;;;18.84;33.88;101651.91;4945024;27;99827;-70
2023/05/19 07:25:45;;;;;;;;;;;;;;;18.93;33.96;101646.56;4944177;27;98162;-64
2023/05/19 07:28:11;;;;;;;;;;;;;;;19.16;33.88;101644.88;4935606;27;99659;-69
2023/05/19 07:30:37;;;;;;;;;;;;;;;19.94;33.20;101639.78;4944614;27;98237;-69
2023/05/19 07:33:04;;;;;;;;;;;;;;;20.26;33.13;101634.22;4941723;27;98331;-69
2023/05/19 07:35:30;;;;;;;;;;;;;;;20.30;33.44;101634.41;4942104;28;98179;-69
2023/05/19 07:37:56;;;;;;;;;;;;;;;20.92;32.97;101631.22;4922540;27;98262;-70
2023/05/19 07:40:22;;;;;;;;;;;;;;;21.58;32.65;101632.38;4941255;27;98117;-66
2023/05/19 07:42:51;;;;;;;;;;;;;;;21.88;32.71;101627.19;4958454;28;98839;-67
2023/05/19 07:45:18;;;;;;;;;;;;;;;22.46;32.19;101629.69;4959258;27;98495;-68
2023/05/19 07:47:44;;;;;;;;;;;;;;;22.99;32.01;101620.41;4942907;27;98002;-62
2023/05/19 07:50:10;;;;;;;;;;;;;;;23.73;31.66;101618.53;4954574;27;98010;-62
2023/05/19 07:52:36;;;;;;;;;;;;;;;24.33;31.66;101620.22;4942841;27;114547;-61
2023/05/19 07:55:02;;;;;;;;;;;;;;;24.87;31.35;101622.28;4939452;27;98098;-68
2023/05/19 07:57:28;;;;;;;;;;;;;;;25.24;31.50;101615.03;4939183;27;98172;-68
2023/05/19 07:59:55;;;;;;;;;;;;;;;25.35;31.30;101615.38;4940454;27;98009;-62
2023/05/19 08:02:21;;;;;;;;;;;;;;;25.07;31.85;101612.38;4955611;27;98303;-62
2023/05/19 08:04:48;;;;;;;;;;;;;;;24.55;32.36;101613.59;4958753;27;98200;-68
2023/05/19 08:07:14;;;;;;;;;;;;;;;25.89;31.31;101613.34;4938930;27;98211;-62
2023/05/19 08:09:40;;;;;;;;;;;;;;;25.71;31.62;101609.97;4957158;27;98611;-68
2023/05/19 08:12:06;;;;;;;;;;;;;;;26.84;30.76;101610.38;4971146;27;98241;-62
2023/05/19 08:14:33;;;;;;;;;;;;;;;27.84;30.47;101608.44;4922493;27;100820;-62
2023/05/19 08:16:59;;;;;;;;;;;;;;;28.28;30.24;101602.75;4937938;28;98090;-68
2023/05/19 08:19:26;;;;;;;;;;;;;;;28.86;30.13;101604.81;4941174;27;98828;-67
2023/05/19 08:21:52;;;;;;;;;;;;;;;29.81;29.20;101624.50;4940458;27;99807;-63
2023/05/19 08:24:18;;;;;;;;;;;;;;;30.67;29.05;101609.13;4938421;27;99146;-68
2023/05/19 08:26:45;;;;;;;;;;;;;;;31.49;28.69;101615.69;4940647;27;98589;-64
2023/05/19 08:29:11;;;;;;;;;;;;;;;30.01;30.51;101611.31;4935440;27;100921;-63
2023/05/19 08:31:37;;;;;;;;;;;;;;;30.31;29.81;101610.63;4924008;27;98543;-67
2023/05/19 08:34:03;;;;;;;;;;;;;;;28.13;32.24;101606.34;4957160;27;98348;-62
2023/05/19 08:36:29;;;;;;;;;;;;;;;26.85;32.91;101604.53;4958566;27;97978;-69
2023/05/19 08:38:56;;;;;;;;;;;;;;;25.90;33.43;101603.13;4955892;27;98808;-68
2023/05/19 08:41:22;;;;;;;;;;;;;;;26.06;32.92;101584.72;4943634;27;98052;-68
2023/05/19 08:43:49;;;;;;;;;;;;;;;28.30;30.90;101575.47;4944385;28;98659;-63
2023/05/19 08:46:15;;;;;;;;;;;;;;;29.04;30.59;101583.81;4959399;27;98025;-68
2023/05/19 08:48:41;;;;;;;;;;;;;;;30.99;29.09;101584.50;4946921;27;98707;-63
2023/05/19 08:51:19;;;;;;;;;;;;;;;32.22;28.23;101588.00;4961021;27;105886;-63
2023/05/19 08:53:49;;;;;;;;;;;;;;;31.04;29.77;101592.50;4961456;27;98140;-63
2023/05/19 08:56:21;;;;;;;;;;;;;;;32.78;28.54;101582.31;4961053;27;98337;-63
2023/05/19 08:58:49;;;;;;;;;;;;;;;33.93;27.66;101586.91;4947095;27;98449;-63
2023/05/19 09:01:15;;;;;;;;;;;;;;;33.49;28.37;101582.56;4957988;28;98453;-63
2023/05/19 09:03:42;;;;;;;;;;;;;;;34.80;27.82;101597.50;4945051;28;101264;-69
2023/05/19 09:06:08;;;;;;;;;;;;;;;34.64;27.89;101592.38;4959852;27;98217;-68
2023/05/19 09:08:36;;;;;;;;;;;;;;;34.26;28.43;101587.69;4925095;28;98291;-68
2023/05/19 09:11:02;;;;;;;;;;;;;;;34.95;28.31;101583.44;4937112;28;97949;-68
2023/05/19 09:13:28;;;;;;;;;;;;;;;35.51;27.87;101581.50;4932472;27;98276;-68
2023/05/19 09:15:56;;;;;;;;;;;;;;;34.74;28.76;101575.94;4926877;27;98165;-63
2023/05/19 09:18:25;;;;;;;;;;;;;;;34.54;28.87;101565.22;4960268;27;99872;-68
2023/05/19 09:20:58;;;;;;;;;;;;;;;34.27;29.50;101562.13;4943590;27;97983;-68
2023/05/19 09:23:25;;;;;;;;;;;;;;;34.02;29.41;101559.38;4956849;27;98079;-68
2023/05/19 09:25:51;;;;;;;;;;;;;;;34.36;29.37;101556.09;4943176;27;99400;-68
2023/05/19 09:28:24;;;;;;;;;;;;;;;34.24;29.36;101554.53;4938381;27;98188;-68
2023/05/19 09:31:09;;;;;;;;;;;;;;;34.22;29.33;101554.13;4960114;27;98475;-68
2023/05/19 09:33:37;;;;;;;;;;;;;;;32.98;30.36;101555.72;4941241;27;98691;-67
2023/05/19 09:36:05;;;;;;;;;;;;;;;34.22;29.38;101559.72;4959463;28;97969;-69
2023/05/19 09:38:31;;;;;;;;;;;;;;;34.79;28.57;101553.94;4943606;28;99537;-63
2023/05/19 09:40:58;;;;;;;;;;;;;;;34.12;29.15;101555.75;4944337;27;98205;-68
2023/05/19 09:43:31;;;;;;;;;;;;;;;32.81;30.49;101548.84;4925025;27;98195;-67
2023/05/19 09:46:06;;;;;;;;;;;;;;;31.17;31.83;101558.84;4955011;27;98200;-63
2023/05/19 09:48:33;;;;;;;;;;;;;;;30.23;32.21;101556.09;4945517;27;101544;-67
2023/05/19 09:51:01;;;;;;;;;;;;;;;28.89;33.07;101545.03;4944754;27;98488;-64
2023/05/19 09:53:29;;;;;;;;;;;;;;;28.00;33.64;101546.66;4926062;27;100492;-68
2023/05/19 09:55:58;;;;;;;;;;;;;;;27.20;33.70;101548.63;4946418;28;98077;-63
2023/05/19 09:58:25;;;;;;;;;;;;;;;27.34;33.10;101546.22;4943784;27;97944;-67
2023/05/19 10:00:53;;;;;;;;;;;;;;;26.46;33.63;101539.78;4942981;27;98381;-69
2023/05/19 10:03:23;;;;;;;;;;;;;;;27.09;32.64;101534.47;4942787;28;98316;-63
2023/05/19 10:05:50;;;;;;;;;;;;;;;25.81;33.70;101531.44;4932606;28;99313;-67
2023/05/19 10:08:17;;;;;;;;;;;;;;;25.08;34.10;101523.81;4945512;27;99562;-63
2023/05/19 10:10:44;;;;;;;;;;;;;;;25.36;33.64;101531.50;4944168;27;98348;-67
2023/05/19 10:13:10;;;;;;;;;;;;;;;24.96;33.77;101527.34;4959277;28;98536;-62
2023/05/19 10:15:37;;;;;;;;;;;;;;;28.30;30.58;101519.25;4960329;27;98707;-63
2023/05/19 10:18:03;;;;;;;;;;;;;;;26.65;32.36;101528.91;4930016;27;99250;-63
2023/05/19 10:20:30;;;;;;;;;;;;;;;26.05;32.91;101533.38;4922240;27;99081;-63
2023/05/19 10:22:56;;;;;;;;;;;;;;;25.36;33.06;101526.78;4937504;27;98237;-68
2023/05/19 10:25:22;;;;;;;;;;;;;;;25.06;33.28;101519.78;4928538;27;97937;-67
2023/05/19 10:28:10;;;;;;;;;;;;;;;26.23;32.12;101517.34;4944128;27;98173;-68
2023/05/19 10:30:38;;;;;;;;;;;;;;;28.22;30.28;101507.19;4960708;27;99266;-67
2023/05/19 10:33:06;;;;;;;;;;;;;;;26.37;32.46;101528.00;4925204;27;98519;-67
2023/05/19 10:36:09;;;;;;;;;;;;;;;25.92;32.34;101524.31;4944328;27;98306;-68
2023/05/19 10:38:52;;;;;;;;;;;;;;;24.98;33.17;101519.53;4980302;27;98042;-67
2023/05/19 10:41:41;;;;;;;;;;;;;;;29.02;29.61;101502.91;4978425;27;98635;-67
2023/05/19 10:44:26;;;;;;;;;;;;;;;29.61;29.27;101519.41;4945880;27;98680;-68
2023/05/19 10:46:52;;;;;;;;;;;;;;;30.28;28.94;101509.31;4959756;27;98149;-63
2023/05/19 10:49:21;;;;;;;;;;;;;;;30.30;29.37;101515.31;4907568;27;100061;-68
2023/05/19 10:51:47;;;;;;;;;;;;;;;28.97;30.74;101503.22;4926718;27;98475;-62
2023/05/19 10:54:15;;;;;;;;;;;;;;;27.92;31.91;101509.69;4951274;27;99520;-63
2023/05/19 10:56:45;;;;;;;;;;;;;;;27.55;31.85;101514.69;4943100;27;98242;-63
2023/05/19 10:59:31;;;;;;;;;;;;;;;26.98;32.33;101527.81;4940832;27;98186;-67
2023/05/19 11:02:02;;;;;;;;;;;;;;;26.34;32.63;101518.50;4946810;27;98064;-62
2023/05/19 11:04:53;;;;;;;;;;;;;;;25.97;32.55;101520.50;4963822;27;98754;-67
2023/05/19 11:07:20;;;;;;;;;;;;;;;25.46;32.90;101515.28;4932643;27;98786;-67
2023/05/19 11:09:50;;;;;;;;;;;;;;;24.92;33.42;101507.09;4938824;27;98184;-63
2023/05/19 11:12:21;;;;;;;;;;;;;;;24.31;33.86;101515.06;4937418;27;98163;-63
2023/05/19 11:14:46;;;;;;;;;;;;;;;24.04;33.52;101513.59;4954885;28;98476;-68
2023/05/19 11:17:14;;;;;;;;;;;;;;;23.70;33.73;101520.94;4943628;27;127786;-63
2023/05/19 11:19:50;;;;;;;;;;;;;;;23.50;34.19;101511.44;4959707;28;98389;-67
2023/05/19 11:22:16;;;;;;;;;;;;;;;23.35;34.04;101513.94;4945213;27;113383;-68
2023/05/19 11:24:46;;;;;;;;;;;;;;;23.08;33.96;101518.69;4943306;27;98164;-68
2023/05/19 11:27:30;;;;;;;;;;;;;;;22.94;33.92;101509.81;4942196;28;98054;-68
2023/05/19 11:29:58;;;;;;;;;;;;;;;22.76;34.04;101507.06;4974120;27;98279;-67
2023/05/19 11:32:34;;;;;;;;;;;;;;;22.38;34.07;101515.13;4944212;27;99398;-63
2023/05/19 11:35:00;;;;;;;;;;;;;;;22.04;34.38;101519.41;4944797;27;99150;-68
2023/05/19 11:37:30;;;;;;;;;;;;;;;21.81;34.39;101521.44;4925119;27;99565;-63
2023/05/19 11:39:56;;;;;;;;;;;;;;;21.71;34.44;101516.25;4938449;27;99446;-68
2023/05/19 11:42:23;;;;;;;;;;;;;;;21.62;34.50;101514.59;4942498;27;98090;-63
2023/05/19 11:44:49;;;;;;;;;;;;;;;21.48;34.35;101504.53;4924836;28;98634;-64
2023/05/19 11:47:16;;;;;;;;;;;;;;;21.50;34.26;101518.75;4957587;27;99704;-63
2023/05/19 11:49:47;;;;;;;;;;;;;;;21.50;34.13;101517.94;4942108;28;99989;-63
2023/05/19 11:52:13;;;;;;;;;;;;;;;21.40;34.19;101505.31;4935975;28;98551;-63
2023/05/19 11:54:40;;;;;;;;;;;;;;;21.42;34.22;101507.72;4958346;27;98161;-67
2023/05/19 11:57:09;;;;;;;;;;;;;;;21.48;33.98;101512.75;4943745;27;98072;-69
2023/05/19 11:59:36;;;;;;;;;;;;;;;21.45;33.97;101520.81;4941520;28;98156;-68
2023/05/19 12:02:26;;;;;;;;;;;;;;;21.51;33.81;101506.66;4941081;28;98135;-67
2023/05/19 12:04:52;;;;;;;;;;;;;;;21.66;33.58;101507.34;4941721;28;98215;-67
2023/05/19 12:07:21;;;;;;;;;;;;;;;21.70;33.53;101508.34;4942818;27;98090;-65
2023/05/19 12:09:48;;;;;;;;;;;;;;;21.72;33.56;101520.59;4956713;28;98346;-63
2023/05/19 12:12:18;;;;;;;;;;;;;;;21.61;33.71;101519.25;4923640;27;99595;-63
2023/05/19 12:14:50;;;;;;;;;;;;;;;21.64;33.59;101501.38;4854606;28;100071;-68
2023/05/19 12:17:20;;;;;;;;;;;;;;;21.80;33.45;101517.06;4932142;28;98876;-68
2023/05/19 12:19:50;;;;;;;;;;;;;;;21.85;33.62;101520.78;4923496;27;100068;-68
2023/05/19 12:22:16;;;;;;;;;;;;;;;21.68;33.58;101521.56;4960255;27;98449;-67
2023/05/19 12:24:42;;;;;;;;;;;;;;;21.46;33.89;101509.53;4949301;27;98363;-64
2023/05/19 12:27:12;;;;;;;;;;;;;;;21.34;33.89;101512.06;4945128;27;98698;-68
2023/05/19 12:29:39;;;;;;;;;;;;;;;21.32;33.86;101512.34;4957305;27;99438;-67
2023/05/19 12:32:07;;;;;;;;;;;;;;;21.36;33.77;101509.81;4957374;27;98377;-67
2023/05/19 12:34:36;;;;;;;;;;;;;;;21.38;33.76;101506.72;4956737;27;114145;-67
2023/05/19 12:37:03;;;;;;;;;;;;;;;21.28;33.87;101503.13;4941113;27;98610;-66
2023/05/19 12:39:29;;;;;;;;;;;;;;;21.21;33.86;101504.69;4961712;27;98724;-63
2023/05/19 12:42:07;;;;;;;;;;;;;;;21.41;33.63;101492.41;4960419;27;98023;-67
2023/05/19 12:44:47;;;;;;;;;;;;;;;21.56;33.45;101491.97;4960633;27;98322;-67